Detall de PIREP

Printer-friendly versionPDF version

[2012/05/01 10:21:00]
Flight IATA:CT0001
Pilot Number:042
Company ICAO:CAT
Aircraft Type:F70/A
PAX:3
Aircraft Registration:PFJ
Departing Airport: LEGE
Destination Airport: LEMH
Alternate Airport:LEPA
Online: VATSIM
Route:BGR A67 SARGO
Flight Level:F210
No Slew and time accel
No pause
Crash detect
Detect pilot in Cockpit between each 30 and 45 minutes
10:21 Zero fuel Weight: 72667 Lbs, Fuel Weight: 14122 Lbs
10:21 VATSIM:LEGE 011000Z 19004KT 130V240 9999 FEW045 17/08 Q1016
10:21 VATSIM:LEMH 011000Z 18006KT 120V250 9999 FEW018 17/12 Q1017
10:21 VOICE CATALONIAN
10:23 Parking Brakes off
10:29 Take-off
10:29 Take off Weight: 86354 Lbs
10:29 Wind: 212º @ 004 Knots Heading: 197º
10:29 POS N41º 53´ 55´´ E002º 45´ 34´´
10:29 Gear Up: 151 Knots
10:29 Flaps:1 at 151 Knots
10:29 Flaps:0 at 173 Knots
10:41 TOC
10:41 Fuel Weight: 12197 Lb
10:44 Wind:170º@014 Knots Heading: 153º Ground Speed: 408 Knots Altitude 21095 ft
10:47 TOD
10:47 Fuel Weight: 11629 Lb
10:59 Wind:171º@008 Knots Heading: 187º Ground Speed: 163 Knots Altitude 3001 ft
10:59 Gear Down: 164 Knots
10:59 Flaps:2 at 165 Knots
10:59 Flaps:3 at 164 Knots
11:02 TouchDown:Rate -522 ft/min Speed: 127 Knots
11:03 VATSIM:LEMH 011030Z 17008KT 140V220 9999 FEW017 17/13 Q1018
11:03 Land
11:03 Wind:193º@008 Knots
11:03 Heading: 191º
11:03 Flight Duration: 00:34
11:03 Landing Weight: 83749 Lbs
11:03 POS N39º 51´ 47´´ E004º 13´ 07´´
11:06 Parking brakes on
11:06 Block to Block Duration: 00:43
11:06 Final Fuel: 10906 Lbls
11:06 Spent Fuel: 3216 Lbls
11:06 Flight Length: 162 NM
11:06 TOD Land Length: 59 NM

Exportar CSV

Powered by Drupal - Modified by Danger4k